Time;durP1;ratioP1;P1;durP2;ratioP2;P2;SDS_P1;SDS_P2;PMS_P1;PMS_P2;Temp;Humidity;BMP_temperature;BMP_pressure;BME280_temperature;BME280_humidity;BME280_pressure;Samples;Min_cycle;Max_cycle;Signal;HPM_P1;HPM_P2
2023/09/07 00:00:28;;;;;;;12.47;6.93;;;14.00;99.90;;;;;;4393072;28;657903;-70
2023/09/07 00:03:16;;;;;;;11.30;7.10;;;14.00;99.90;;;;;;4406805;28;658909;-71
2023/09/07 00:06:03;;;;;;;12.17;6.87;;;14.00;99.90;;;;;;4392938;28;658283;-70
2023/09/07 00:08:52;;;;;;;11.43;6.47;;;14.00;99.90;;;;;;4417159;28;657879;-71
2023/09/07 00:11:39;;;;;;;13.37;6.80;;;14.00;99.90;;;;;;4392641;28;658602;-70
2023/09/07 00:14:26;;;;;;;13.53;6.77;;;14.00;99.90;;;;;;4422233;28;656969;-71
2023/09/07 00:17:13;;;;;;;14.87;6.90;;;14.00;99.90;;;;;;4383801;28;657899;-70
2023/09/07 00:20:00;;;;;;;13.20;7.05;;;14.00;99.90;;;;;;4408697;28;657831;-71
2023/09/07 00:22:48;;;;;;;15.33;7.30;;;14.00;99.90;;;;;;4391287;28;658041;-70
2023/09/07 00:25:36;;;;;;;12.93;7.77;;;14.00;99.90;;;;;;4429288;28;658063;-70
2023/09/07 00:28:24;;;;;;;13.60;6.83;;;14.00;99.90;;;;;;4393907;28;657734;-70
2023/09/07 00:31:11;;;;;;;11.37;7.13;;;14.00;99.90;;;;;;4401593;28;658496;-71
2023/09/07 00:33:58;;;;;;;11.63;7.37;;;14.00;99.90;;;;;;4389311;28;657505;-70
2023/09/07 00:36:45;;;;;;;13.73;7.07;;;14.00;99.90;;;;;;4403265;28;658652;-70
2023/09/07 00:39:32;;;;;;;11.20;6.93;;;14.00;99.90;;;;;;4392817;28;657361;-69
2023/09/07 00:42:21;;;;;;;14.13;7.20;;;14.00;99.90;;;;;;4408210;28;658467;-70
2023/09/07 00:45:09;;;;;;;15.60;7.35;;;14.00;99.90;;;;;;4390997;28;657402;-70
2023/09/07 00:47:56;;;;;;;14.73;6.93;;;14.10;99.90;;;;;;4402061;28;657970;-71
2023/09/07 00:50:43;;;;;;;14.03;7.70;;;14.10;99.90;;;;;;4387548;28;657803;-71
2023/09/07 00:53:31;;;;;;;13.87;6.80;;;14.00;99.90;;;;;;4409755;28;657769;-71
2023/09/07 00:56:18;;;;;;;11.47;6.70;;;14.00;99.90;;;;;;4388411;28;657433;-70
2023/09/07 00:59:06;;;;;;;12.57;7.17;;;14.00;99.90;;;;;;4414124;28;659024;-70
2023/09/07 01:01:54;;;;;;;19.00;7.63;;;14.00;99.90;;;;;;4389206;28;658483;-71
2023/09/07 01:04:42;;;;;;;15.60;7.03;;;14.00;99.90;;;;;;4411969;28;658089;-70
2023/09/07 01:07:32;;;;;;;12.23;7.20;;;13.90;99.90;;;;;;4381140;28;659243;-71
2023/09/07 01:10:21;;;;;;;14.43;8.30;;;13.90;99.90;;;;;;4383422;28;658452;-71
2023/09/07 01:13:08;;;;;;;12.90;7.03;;;13.80;99.90;;;;;;4382714;28;657862;-70
2023/09/07 01:15:57;;;;;;;12.23;7.00;;;13.80;99.90;;;;;;4416089;28;659091;-71
2023/09/07 01:18:44;;;;;;;17.63;6.90;;;13.80;99.90;;;;;;4389942;28;658261;-71
2023/09/07 01:21:35;;;;;;;12.43;6.53;;;13.70;99.90;;;;;;4410773;28;657739;-71
2023/09/07 01:24:22;;;;;;;16.93;7.37;;;13.50;99.90;;;;;;4385696;28;657499;-69
2023/09/07 01:27:10;;;;;;;12.17;6.80;;;13.40;99.90;;;;;;4417039;28;658629;-71
2023/09/07 01:29:57;;;;;;;16.73;6.87;;;13.30;99.90;;;;;;4408878;28;658593;-69
2023/09/07 01:32:44;;;;;;;17.20;7.20;;;13.30;99.90;;;;;;4387657;28;659277;-71
2023/09/07 01:35:32;;;;;;;17.67;7.40;;;13.20;99.90;;;;;;4405754;28;657999;-71
2023/09/07 01:38:20;;;;;;;12.60;6.77;;;13.20;99.90;;;;;;4391999;28;659324;-70
2023/09/07 01:41:08;;;;;;;15.17;7.37;;;13.10;99.90;;;;;;4393275;28;658262;-69
2023/09/07 01:43:55;;;;;;;13.30;6.73;;;13.00;99.90;;;;;;4410304;28;657445;-71
2023/09/07 01:46:43;;;;;;;11.47;7.10;;;13.00;99.90;;;;;;4406614;28;658050;-69
2023/09/07 01:49:30;;;;;;;14.77;7.40;;;13.00;99.90;;;;;;4408203;28;658619;-71
2023/09/07 01:52:17;;;;;;;16.80;7.20;;;13.00;99.90;;;;;;4403942;28;657502;-69
2023/09/07 01:55:07;;;;;;;13.97;6.97;;;13.00;99.90;;;;;;4415096;28;658846;-71
2023/09/07 01:57:54;;;;;;;12.33;6.63;;;13.00;99.90;;;;;;4389755;28;658178;-71
2023/09/07 02:00:41;;;;;;;16.03;6.73;;;13.00;99.90;;;;;;4401948;28;657685;-71
2023/09/07 02:03:28;;;;;;;13.00;6.83;;;13.00;99.90;;;;;;4392946;28;657606;-69
2023/09/07 02:06:15;;;;;;;12.47;6.63;;;13.00;99.90;;;;;;4416813;28;658144;-71
2023/09/07 02:09:04;;;;;;;15.60;7.30;;;13.10;99.90;;;;;;4396309;28;657532;-70
2023/09/07 02:11:52;;;;;;;12.23;6.70;;;13.20;99.90;;;;;;4418347;28;657638;-71
2023/09/07 02:14:39;;;;;;;13.47;6.40;;;13.20;99.90;;;;;;4396195;28;658268;-71
2023/09/07 02:17:27;;;;;;;13.07;6.50;;;13.20;99.90;;;;;;4406906;28;657673;-71
2023/09/07 02:20:14;;;;;;;12.57;6.53;;;13.20;99.90;;;;;;4397954;28;658921;-71
2023/09/07 02:23:02;;;;;;;11.10;6.60;;;13.30;99.90;;;;;;4415041;28;657437;-71
2023/09/07 02:25:49;;;;;;;12.90;6.30;;;13.30;99.90;;;;;;4393940;28;657904;-70
2023/09/07 02:28:38;;;;;;;16.07;6.50;;;13.30;99.90;;;;;;4412199;28;658006;-71
2023/09/07 02:31:25;;;;;;;13.27;7.13;;;13.30;99.90;;;;;;4391110;28;658476;-71
2023/09/07 02:34:12;;;;;;;9.20;6.27;;;13.20;99.90;;;;;;4388401;28;657480;-69
2023/09/07 02:37:00;;;;;;;10.07;6.27;;;13.20;99.90;;;;;;4425769;28;657778;-71
2023/09/07 02:39:47;;;;;;;14.27;6.77;;;13.10;99.90;;;;;;4417820;28;657695;-71
2023/09/07 02:42:34;;;;;;;14.50;6.27;;;13.10;99.90;;;;;;4395418;28;659358;-71
2023/09/07 02:45:23;;;;;;;12.50;6.30;;;13.10;99.90;;;;;;4413558;28;657294;-71
2023/09/07 02:48:10;;;;;;;10.77;6.50;;;12.90;99.90;;;;;;4377972;28;658482;-71
2023/09/07 02:50:58;;;;;;;17.23;6.67;;;12.90;99.90;;;;;;4401954;28;657875;-69
2023/09/07 02:53:45;;;;;;;10.00;6.00;;;12.90;99.90;;;;;;4408671;28;657973;-71
2023/09/07 02:56:32;;;;;;;10.17;5.87;;;12.90;99.90;;;;;;4405532;28;657224;-69
2023/09/07 02:59:20;;;;;;;10.47;5.90;;;12.90;99.90;;;;;;4416778;28;658901;-70
2023/09/07 03:02:09;;;;;;;12.00;6.53;;;12.80;99.90;;;;;;4394357;28;658369;-69
2023/09/07 03:04:58;;;;;;;17.40;6.50;;;12.80;99.90;;;;;;4411652;28;657558;-71
2023/09/07 03:07:46;;;;;;;11.93;6.90;;;12.80;99.90;;;;;;4387567;28;659053;-70
2023/09/07 03:10:33;;;;;;;14.60;6.50;;;12.80;99.90;;;;;;4399016;28;657870;-70
2023/09/07 03:13:20;;;;;;;10.93;5.90;;;12.80;99.90;;;;;;4413096;28;658074;-71
2023/09/07 03:16:08;;;;;;;16.57;6.77;;;12.80;99.90;;;;;;4394999;28;657919;-71
2023/09/07 03:18:56;;;;;;;14.33;7.17;;;12.80;99.90;;;;;;4408972;28;658805;-71
2023/09/07 03:21:43;;;;;;;12.90;6.95;;;12.90;99.90;;;;;;4389899;28;657842;-71
2023/09/07 03:24:31;;;;;;;11.33;6.77;;;12.90;99.90;;;;;;4406408;28;657664;-71
2023/09/07 03:27:18;;;;;;;11.67;6.30;;;13.00;99.90;;;;;;4397068;28;658550;-71
2023/09/07 03:30:07;;;;;;;11.40;6.90;;;13.00;99.90;;;;;;4405512;28;658055;-71
2023/09/07 03:32:54;;;;;;;14.73;7.17;;;13.00;99.90;;;;;;4396615;28;658687;-71
2023/09/07 03:35:43;;;;;;;11.77;6.73;;;13.00;99.90;;;;;;4410964;28;657807;-71
2023/09/07 03:38:30;;;;;;;15.00;7.40;;;13.10;99.90;;;;;;4391334;28;658217;-71
2023/09/07 03:41:17;;;;;;;13.43;6.82;;;13.10;99.90;;;;;;4386674;28;657651;-69
2023/09/07 03:44:05;;;;;;;9.67;6.57;;;13.10;99.90;;;;;;4413078;28;659055;-71
2023/09/07 03:46:52;;;;;;;12.33;6.30;;;13.20;99.90;;;;;;4389520;28;656799;-70
2023/09/07 03:49:40;;;;;;;13.53;6.20;;;13.10;99.90;;;;;;4410675;28;659030;-71
2023/09/07 03:52:28;;;;;;;12.87;6.40;;;13.20;99.90;;;;;;4413903;28;657804;-70
2023/09/07 03:55:16;;;;;;;11.83;6.57;;;13.20;99.90;;;;;;4389148;28;658298;-71
2023/09/07 03:58:03;;;;;;;13.93;6.47;;;13.20;99.90;;;;;;4389806;28;657867;-69
2023/09/07 04:00:50;;;;;;;13.27;6.37;;;13.30;99.90;;;;;;4416356;28;658465;-71
2023/09/07 04:03:38;;;;;;;12.70;5.93;;;13.30;99.90;;;;;;4392621;28;657586;-70
2023/09/07 04:06:25;;;;;;;9.83;5.87;;;13.30;99.90;;;;;;4415297;28;658139;-71
2023/09/07 04:09:14;;;;;;;12.07;6.40;;;13.40;99.90;;;;;;4403044;28;656698;-69
2023/09/07 04:12:03;;;;;;;11.57;6.63;;;13.40;99.90;;;;;;4409588;28;657566;-71
2023/09/07 04:14:50;;;;;;;11.17;6.00;;;13.40;99.90;;;;;;4393454;28;658157;-71
2023/09/07 04:17:40;;;;;;;12.87;6.17;;;13.40;99.90;;;;;;4383425;28;657804;-70
2023/09/07 04:20:29;;;;;;;11.50;6.13;;;13.50;99.90;;;;;;4402968;28;657509;-69
2023/09/07 04:23:16;;;;;;;12.60;6.03;;;13.50;99.90;;;;;;4406594;28;658463;-71
2023/09/07 04:26:12;;;;;;;8.93;5.77;;;13.60;99.90;;;;;;4383314;28;657525;-71
2023/09/07 04:28:59;;;;;;;11.57;6.57;;;13.60;99.90;;;;;;4361929;28;657402;-71
2023/09/07 04:31:46;;;;;;;10.77;6.00;;;13.70;99.90;;;;;;4404724;28;657467;-71
2023/09/07 04:34:33;;;;;;;12.37;6.50;;;13.80;99.90;;;;;;4384301;28;657695;-71
2023/09/07 04:37:21;;;;;;;13.80;6.53;;;13.80;99.90;;;;;;4408377;28;658282;-71
2023/09/07 04:40:08;;;;;;;12.27;6.73;;;13.90;99.90;;;;;;4388882;28;657850;-71
2023/09/07 04:42:57;;;;;;;13.17;7.03;;;13.90;99.90;;;;;;4420090;28;657959;-71
2023/09/07 04:45:47;;;;;;;12.40;6.60;;;14.00;99.90;;;;;;4392406;28;659098;-71
2023/09/07 04:48:35;;;;;;;14.63;6.83;;;14.10;99.90;;;;;;4395009;28;658116;-71
2023/09/07 04:51:23;;;;;;;11.80;6.70;;;14.20;99.90;;;;;;4414576;28;657482;-71
2023/09/07 04:54:10;;;;;;;10.67;6.30;;;14.30;99.90;;;;;;4379391;28;658331;-71
2023/09/07 04:56:58;;;;;;;10.57;5.87;;;14.30;99.90;;;;;;4392888;28;658410;-70
2023/09/07 04:59:46;;;;;;;12.03;6.27;;;14.40;99.90;;;;;;4404940;28;658482;-71
2023/09/07 05:02:38;;;;;;;14.00;6.60;;;14.50;99.90;;;;;;4382999;28;657626;-70
2023/09/07 05:05:25;;;;;;;14.17;6.37;;;14.60;99.90;;;;;;4389862;28;658761;-71
2023/09/07 05:08:12;;;;;;;11.53;6.13;;;14.70;99.90;;;;;;4380172;28;658203;-69
2023/09/07 05:11:00;;;;;;;10.63;6.23;;;14.80;99.90;;;;;;4415069;28;658014;-71
2023/09/07 05:13:47;;;;;;;13.47;6.70;;;14.90;99.90;;;;;;4392197;28;657857;-69
2023/09/07 05:16:36;;;;;;;12.77;6.50;;;15.00;99.90;;;;;;4407620;28;658893;-70
2023/09/07 05:19:23;;;;;;;11.73;6.03;;;15.20;99.90;;;;;;4385984;28;657408;-71
2023/09/07 05:22:11;;;;;;;9.83;5.87;;;15.30;99.90;;;;;;4408632;28;657838;-71
2023/09/07 05:24:58;;;;;;;13.47;6.17;;;15.40;99.90;;;;;;4384341;28;656605;-70
2023/09/07 05:27:45;;;;;;;13.60;6.03;;;15.50;99.90;;;;;;4414075;28;657657;-71
2023/09/07 05:30:33;;;;;;;12.37;5.80;;;15.60;99.90;;;;;;4392848;28;657618;-70
2023/09/07 05:33:21;;;;;;;10.97;5.80;;;15.70;99.90;;;;;;4412000;28;659102;-71
2023/09/07 05:36:08;;;;;;;12.50;6.10;;;15.90;99.90;;;;;;4389872;28;658158;-71
2023/09/07 05:38:56;;;;;;;10.93;6.00;;;16.00;99.90;;;;;;4407503;28;658424;-71
2023/09/07 05:41:43;;;;;;;11.47;6.17;;;16.10;99.90;;;;;;4392327;28;657926;-71
2023/09/07 05:44:30;;;;;;;10.53;5.60;;;16.20;99.90;;;;;;4417881;28;658153;-70
2023/09/07 05:47:18;;;;;;;9.20;5.23;;;16.40;99.90;;;;;;4399054;28;657431;-69
2023/09/07 05:50:08;;;;;;;15.47;6.23;;;16.50;99.90;;;;;;4420731;28;657101;-72
2023/09/07 05:52:55;;;;;;;9.77;5.73;;;16.60;99.90;;;;;;4380800;28;658187;-71
2023/09/07 05:55:43;;;;;;;9.27;5.40;;;16.80;99.90;;;;;;4399015;28;657366;-69
2023/09/07 05:58:30;;;;;;;10.97;5.33;;;16.90;99.90;;;;;;4411030;28;658016;-70
2023/09/07 06:01:17;;;;;;;10.77;5.90;;;17.00;99.90;;;;;;4393002;28;657561;-69
2023/09/07 06:04:05;;;;;;;10.73;5.50;;;17.10;99.90;;;;;;4412944;28;658769;-72
2023/09/07 06:06:54;;;;;;;13.73;6.43;;;17.30;99.90;;;;;;4400639;28;657972;-69
2023/09/07 06:09:41;;;;;;;13.23;5.60;;;17.40;99.90;;;;;;4411624;28;657667;-71
2023/09/07 06:12:28;;;;;;;8.73;5.40;;;17.50;99.90;;;;;;4382116;28;657503;-70
2023/09/07 06:15:16;;;;;;;13.17;5.83;;;17.70;99.90;;;;;;4399760;28;658644;-70
2023/09/07 06:18:03;;;;;;;11.03;5.57;;;17.80;99.90;;;;;;4386771;28;658317;-69
2023/09/07 06:20:50;;;;;;;11.57;5.40;;;17.90;99.90;;;;;;4416618;28;658820;-71
2023/09/07 06:23:39;;;;;;;10.77;5.77;;;18.00;99.90;;;;;;4386362;28;657882;-70
2023/09/07 06:26:26;;;;;;;10.30;5.83;;;18.20;99.90;;;;;;4411847;28;657754;-70
2023/09/07 06:29:13;;;;;;;9.83;5.60;;;18.30;99.90;;;;;;4383752;28;657537;-71
2023/09/07 06:32:01;;;;;;;10.17;5.40;;;18.50;99.90;;;;;;4410250;28;657352;-71
2023/09/07 06:34:48;;;;;;;11.00;5.53;;;18.60;99.90;;;;;;4391793;28;657681;-71
2023/09/07 06:37:35;;;;;;;9.10;5.40;;;18.70;99.90;;;;;;4413244;28;658805;-71
2023/09/07 06:40:25;;;;;;;9.20;5.60;;;18.80;99.90;;;;;;4392540;28;656787;-69
2023/09/07 06:43:13;;;;;;;9.40;4.97;;;19.00;99.90;;;;;;4393755;28;657496;-69
2023/09/07 06:46:04;;;;;;;11.67;5.20;;;19.10;99.90;;;;;;4406844;28;658361;-71
2023/09/07 06:48:51;;;;;;;10.13;6.20;;;19.20;99.90;;;;;;4389237;28;659436;-71
2023/09/07 06:51:39;;;;;;;11.80;5.87;;;19.30;99.90;;;;;;4386792;28;657591;-70
2023/09/07 06:54:26;;;;;;;10.20;5.70;;;19.40;99.90;;;;;;4409403;28;657317;-71
2023/09/07 06:57:14;;;;;;;13.60;5.80;;;19.50;99.90;;;;;;4383938;28;657410;-71
2023/09/07 07:00:05;;;;;;;10.90;5.90;;;19.60;99.90;;;;;;4401173;28;657803;-69
2023/09/07 07:02:52;;;;;;;8.47;5.10;;;19.80;99.90;;;;;;4403877;28;657870;-72
2023/09/07 07:05:39;;;;;;;12.60;5.53;;;19.90;99.90;;;;;;4383298;28;657345;-72
2023/09/07 07:08:26;;;;;;;11.07;5.50;;;20.10;99.90;;;;;;4409308;28;658639;-72
2023/09/07 07:11:13;;;;;;;13.63;5.73;;;20.10;99.90;;;;;;4385385;28;658536;-71
2023/09/07 07:14:02;;;;;;;8.53;5.00;;;20.20;99.90;;;;;;4401767;28;658810;-72
2023/09/07 07:16:49;;;;;;;11.13;5.50;;;20.30;99.90;;;;;;4382999;28;657493;-71
2023/09/07 07:19:36;;;;;;;10.23;5.17;;;20.40;99.90;;;;;;4416184;28;658585;-71
2023/09/07 07:22:23;;;;;;;15.33;5.30;;;20.60;99.90;;;;;;4392693;28;657508;-72
2023/09/07 07:25:11;;;;;;;10.73;5.40;;;20.70;99.90;;;;;;4408685;28;659012;-72
2023/09/07 07:27:59;;;;;;;10.23;5.40;;;20.90;99.90;;;;;;4378511;28;657114;-72
2023/09/07 07:30:48;;;;;;;11.20;5.70;;;20.90;99.90;;;;;;4402466;28;658387;-72
2023/09/07 07:33:35;;;;;;;13.40;5.80;;;21.00;99.90;;;;;;4381969;28;659099;-71
2023/09/07 07:36:24;;;;;;;11.23;5.60;;;21.00;99.90;;;;;;4392468;28;657417;-72
2023/09/07 07:39:11;;;;;;;8.67;5.20;;;21.10;99.90;;;;;;4402743;28;657910;-71
2023/09/07 07:41:58;;;;;;;13.07;5.75;;;21.20;99.90;;;;;;4375328;28;656804;-71
2023/09/07 07:44:45;;;;;;;11.37;6.07;;;21.30;99.90;;;;;;4403536;28;660173;-72
2023/09/07 07:47:34;;;;;;;13.57;6.07;;;21.30;99.90;;;;;;4389667;28;657845;-70
2023/09/07 07:50:21;;;;;;;13.20;5.40;;;21.60;99.90;;;;;;4408832;28;657870;-72
2023/09/07 07:53:08;;;;;;;11.07;5.60;;;21.80;99.90;;;;;;4384381;28;658228;-71
2023/09/07 07:55:56;;;;;;;12.93;5.40;;;22.00;99.90;;;;;;4411287;28;658053;-71
2023/09/07 07:58:44;;;;;;;7.93;5.37;;;22.20;99.90;;;;;;4378715;28;657529;-72
2023/09/07 08:01:31;;;;;;;9.07;5.13;;;22.30;99.90;;;;;;4404740;28;656044;-71
2023/09/07 08:04:20;;;;;;;9.97;5.33;;;22.40;99.90;;;;;;4391791;28;656409;-72
2023/09/07 08:07:08;;;;;;;12.83;5.73;;;22.40;99.90;;;;;;4400257;28;656957;-69
2023/09/07 08:09:55;;;;;;;10.13;5.17;;;22.80;99.90;;;;;;4412984;28;659089;-71
2023/09/07 08:12:44;;;;;;;11.13;5.20;;;23.20;99.90;;;;;;4401463;28;657742;-69
2023/09/07 08:15:32;;;;;;;8.88;5.00;;;23.20;99.90;;;;;;4409510;28;657792;-71
2023/09/07 08:18:19;;;;;;;10.98;5.43;;;23.20;99.90;;;;;;4382230;28;657915;-72
2023/09/07 08:21:08;;;;;;;9.80;5.63;;;23.50;99.90;;;;;;4406211;28;657268;-70
2023/09/07 08:23:55;;;;;;;9.57;5.32;;;23.80;99.90;;;;;;4382925;28;658477;-72
2023/09/07 08:26:43;;;;;;;10.50;5.22;;;24.10;99.90;;;;;;4388443;28;656863;-69
2023/09/07 08:29:32;;;;;;;8.80;4.90;;;24.30;99.90;;;;;;4413975;28;658904;-71
2023/09/07 08:32:19;;;;;;;10.80;5.50;;;24.30;99.90;;;;;;4382419;28;658302;-72
2023/09/07 08:35:09;;;;;;;8.55;5.25;;;24.40;99.90;;;;;;4412969;28;657848;-72
2023/09/07 08:37:58;;;;;;;13.50;5.43;;;24.80;99.90;;;;;;4397774;28;657234;-71
2023/09/07 08:40:46;;;;;;;10.82;5.05;;;24.70;99.90;;;;;;4380008;28;657820;-72
2023/09/07 08:43:34;;;;;;;11.35;5.55;;;24.90;97.40;;;;;;4378080;28;658598;-72
2023/09/07 08:46:22;;;;;;;11.27;4.90;;;24.90;98.70;;;;;;4403943;28;657406;-72
2023/09/07 08:49:09;;;;;;;11.52;5.43;;;25.00;99.90;;;;;;4379519;28;657833;-72
2023/09/07 08:51:59;;;;;;;10.48;5.22;;;25.10;98.60;;;;;;4405003;28;658012;-72
2023/09/07 08:54:48;;;;;;;14.90;6.05;;;25.30;96.80;;;;;;4382669;28;657886;-72
2023/09/07 08:57:35;;;;;;;11.77;5.45;;;25.40;97.20;;;;;;4376583;28;659480;-72
2023/09/07 09:00:23;;;;;;;8.90;5.07;;;25.50;97.50;;;;;;4396446;28;657632;-70
2023/09/07 09:03:10;;;;;;;13.23;5.43;;;25.50;95.30;;;;;;4402793;28;657049;-72
2023/09/07 09:05:58;;;;;;;8.82;5.25;;;25.30;91.80;;;;;;4390464;28;658009;-70
2023/09/07 09:08:45;;;;;;;11.95;5.38;;;25.30;93.40;;;;;;4406650;28;657622;-72
2023/09/07 09:11:34;;;;;;;11.52;5.20;;;25.30;91.80;;;;;;4396235;28;657799;-69
2023/09/07 09:14:22;;;;;;;8.98;5.22;;;25.30;92.40;;;;;;4407356;28;657929;-72
2023/09/07 09:17:12;;;;;;;8.05;4.95;;;25.60;91.70;;;;;;4384499;28;657068;-71
2023/09/07 09:19:59;;;;;;;7.07;4.78;;;25.60;92.60;;;;;;4381928;28;657170;-72
2023/09/07 09:22:47;;;;;;;8.82;4.55;;;25.70;89.80;;;;;;4398102;28;657717;-72
2023/09/07 09:25:34;;;;;;;8.65;4.57;;;25.80;91.40;;;;;;4400011;28;656715;-72
2023/09/07 09:28:22;;;;;;;6.40;4.00;;;25.70;85.00;;;;;;4399826;28;657304;-71
2023/09/07 09:31:12;;;;;;;8.88;5.00;;;25.90;82.00;;;;;;4389076;28;657162;-72
2023/09/07 09:33:59;;;;;;;11.15;4.90;;;26.00;77.50;;;;;;4379728;28;658031;-71
2023/09/07 09:36:46;;;;;;;5.95;4.40;;;26.00;76.00;;;;;;4408113;28;658444;-71
2023/09/07 09:39:34;;;;;;;8.98;4.70;;;26.10;76.80;;;;;;4381107;28;656609;-71
2023/09/07 09:42:21;;;;;;;8.25;4.65;;;25.90;74.30;;;;;;4399050;28;657028;-71
2023/09/07 09:45:10;;;;;;;9.20;4.90;;;26.10;75.10;;;;;;4393449;28;657096;-70
2023/09/07 09:47:59;;;;;;;8.05;4.43;;;26.10;72.30;;;;;;4383474;28;656773;-70
2023/09/07 09:50:48;;;;;;;10.05;4.55;;;26.00;71.00;;;;;;4406266;28;657250;-71
2023/09/07 09:53:35;;;;;;;8.38;4.40;;;26.20;71.80;;;;;;4390376;28;658574;-70
2023/09/07 09:56:23;;;;;;;6.78;4.65;;;26.20;68.70;;;;;;4395869;28;656614;-69
2023/09/07 09:59:10;;;;;;;10.63;4.88;;;26.10;67.90;;;;;;4417718;28;657463;-70
2023/09/07 10:02:00;;;;;;;8.90;4.78;;;26.20;72.20;;;;;;4406952;28;658259;-69
2023/09/07 10:04:47;;;;;;;9.23;5.03;;;26.00;72.20;;;;;;4394603;28;656620;-69
2023/09/07 10:07:42;;;;;;;11.43;5.00;;;26.50;72.70;;;;;;4429608;28;656613;-70
2023/09/07 10:10:34;;;;;;;12.10;5.20;;;26.50;72.80;;;;;;4396428;28;657473;-70
2023/09/07 10:13:30;;;;;;;8.60;4.43;;;26.50;69.00;;;;;;4377123;28;657821;-71
2023/09/07 10:16:18;;;;;;;10.27;5.10;;;26.60;69.90;;;;;;4384736;28;656837;-69
2023/09/07 10:19:14;;;;;;;13.57;5.22;;;26.90;68.80;;;;;;4413920;28;658182;-71
2023/09/07 10:22:03;;;;;;;12.93;5.15;;;26.90;73.40;;;;;;4387498;28;658016;-71
2023/09/07 10:24:58;;;;;;;8.55;4.38;;;26.90;71.80;;;;;;4392097;28;657835;-70
2023/09/07 10:27:45;;;;;;;7.20;4.10;;;27.20;68.90;;;;;;4393110;28;657264;-71
2023/09/07 10:30:33;;;;;;;7.47;4.68;;;27.40;68.70;;;;;;4401388;28;656916;-69
2023/09/07 10:33:21;;;;;;;7.07;4.45;;;27.50;62.00;;;;;;4414762;28;657127;-70
2023/09/07 10:36:09;;;;;;;9.82;4.70;;;27.30;60.80;;;;;;4392441;28;657348;-70
2023/09/07 10:38:57;;;;;;;6.78;4.10;;;27.30;63.40;;;;;;4419880;28;656312;-71
2023/09/07 10:41:44;;;;;;;8.73;4.30;;;27.60;62.90;;;;;;4395944;28;657259;-70
2023/09/07 10:44:31;;;;;;;8.18;4.40;;;27.60;63.60;;;;;;4404060;28;656127;-71
2023/09/07 10:47:18;;;;;;;8.10;4.63;;;27.40;60.30;;;;;;4383271;28;657053;-71
2023/09/07 10:50:07;;;;;;;7.70;4.00;;;27.30;62.00;;;;;;4400160;28;658073;-71
2023/09/07 10:52:56;;;;;;;7.10;3.80;;;27.10;62.70;;;;;;4383776;28;656676;-70
2023/09/07 10:55:44;;;;;;;9.43;4.32;;;27.20;60.50;;;;;;4383435;28;656230;-70
2023/09/07 10:58:33;;;;;;;8.07;4.45;;;27.30;62.10;;;;;;4399749;28;656584;-71
2023/09/07 11:01:21;;;;;;;5.40;3.90;;;27.60;61.30;;;;;;4385940;28;657732;-71
2023/09/07 11:04:10;;;;;;;6.65;4.20;;;27.60;61.50;;;;;;4395106;28;656705;-71
2023/09/07 11:06:58;;;;;;;7.90;4.30;;;27.60;61.00;;;;;;4398918;28;656450;-70
2023/09/07 11:09:46;;;;;;;9.27;4.25;;;27.80;60.70;;;;;;4403543;28;658048;-70
2023/09/07 11:12:38;;;;;;;7.45;3.95;;;28.30;60.00;;;;;;4395884;28;656171;-71
2023/09/07 11:15:25;;;;;;;7.25;3.75;;;28.40;56.40;;;;;;4374655;28;656751;-71
2023/09/07 11:18:13;;;;;;;10.15;4.28;;;28.10;57.00;;;;;;4393497;28;656827;-69
2023/09/07 11:21:03;;;;;;;9.52;4.30;;;28.10;61.40;;;;;;4401786;28;657717;-70
2023/09/07 11:23:51;;;;;;;8.50;4.13;;;28.30;58.00;;;;;;4387334;28;657862;-70
2023/09/07 11:26:45;;;;;;;9.57;3.95;;;28.40;57.30;;;;;;4396449;28;656331;-69
2023/09/07 11:29:33;;;;;;;6.15;4.10;;;28.40;57.10;;;;;;4372007;28;657792;-69
2023/09/07 11:32:22;;;;;;;8.38;3.88;;;28.70;57.60;;;;;;4421218;28;657223;-70
2023/09/07 11:35:10;;;;;;;7.78;4.20;;;28.50;58.00;;;;;;4392085;28;657705;-70
2023/09/07 11:37:57;;;;;;;9.45;4.43;;;28.70;56.90;;;;;;4385390;28;657126;-68
2023/09/07 11:40:45;;;;;;;6.45;4.07;;;28.60;57.50;;;;;;4413492;28;657533;-70
2023/09/07 11:43:34;;;;;;;7.27;4.17;;;28.40;56.30;;;;;;4376137;28;656502;-69
2023/09/07 11:46:22;;;;;;;6.90;3.33;;;28.40;56.30;;;;;;4407948;28;656918;-68
2023/09/07 11:49:09;;;;;;;7.88;3.83;;;28.40;57.50;;;;;;4388079;28;657432;-70
2023/09/07 11:51:56;;;;;;;7.28;3.83;;;28.60;55.20;;;;;;4413185;28;656639;-70
2023/09/07 11:54:43;;;;;;;5.82;4.10;;;28.60;55.30;;;;;;4391238;28;656627;-69
2023/09/07 11:57:30;;;;;;;6.13;4.00;;;29.00;55.90;;;;;;4400222;28;657234;-69
2023/09/07 12:00:22;;;;;;;7.43;4.05;;;28.90;55.40;;;;;;4375261;28;656656;-69
2023/09/07 12:03:09;;;;;;;7.47;4.40;;;29.00;55.30;;;;;;4382481;28;657683;-69
2023/09/07 12:05:56;;;;;;;6.55;3.90;;;28.90;56.20;;;;;;4392222;28;656625;-69
2023/09/07 12:08:43;;;;;;;9.43;4.28;;;28.90;56.60;;;;;;4376084;28;656395;-69
2023/09/07 12:11:31;;;;;;;5.40;3.83;;;28.70;55.10;;;;;;4401239;28;656512;-69
2023/09/07 12:14:18;;;;;;;8.13;4.20;;;28.30;54.80;;;;;;4388404;28;656461;-69
2023/09/07 12:17:07;;;;;;;7.43;4.50;;;28.40;55.50;;;;;;4409561;28;658246;-68
2023/09/07 12:19:54;;;;;;;7.57;4.28;;;28.40;56.70;;;;;;4392456;28;658331;-69
2023/09/07 12:22:42;;;;;;;8.27;3.95;;;28.40;55.90;;;;;;4409900;28;657080;-69
2023/09/07 12:25:29;;;;;;;5.68;4.40;;;28.60;54.60;;;;;;4388792;28;656948;-69
2023/09/07 12:28:16;;;;;;;7.15;4.30;;;28.80;54.30;;;;;;4407297;28;657266;-69
2023/09/07 12:31:04;;;;;;;5.18;4.07;;;28.90;56.20;;;;;;4385119;28;656895;-68
2023/09/07 12:33:53;;;;;;;7.90;3.90;;;29.00;56.00;;;;;;4403970;28;656737;-69
2023/09/07 12:36:40;;;;;;;7.10;3.33;;;29.00;55.40;;;;;;4386366;28;657448;-68
2023/09/07 12:39:27;;;;;;;4.72;3.42;;;29.10;54.80;;;;;;4394764;28;656363;-68
2023/09/07 12:42:15;;;;;;;6.85;3.53;;;29.00;54.60;;;;;;4409775;28;658211;-69
2023/09/07 12:45:04;;;;;;;5.88;3.75;;;29.00;53.30;;;;;;4405124;28;656578;-68
2023/09/07 12:47:51;;;;;;;8.38;3.60;;;28.90;53.30;;;;;;4403775;28;657034;-69
2023/09/07 12:50:40;;;;;;;7.80;3.73;;;29.00;53.80;;;;;;4388094;28;656443;-69
2023/09/07 12:53:27;;;;;;;9.25;3.15;;;29.10;53.00;;;;;;4401336;28;657152;-68
2023/09/07 12:56:15;;;;;;;6.18;3.42;;;28.90;52.20;;;;;;4405745;28;656491;-69
2023/09/07 12:59:03;;;;;;;4.30;3.33;;;28.40;56.40;;;;;;4391856;28;656856;-67
2023/09/07 13:01:50;;;;;;;5.95;3.80;;;28.60;55.20;;;;;;4409956;28;657178;-69
2023/09/07 13:04:37;;;;;;;5.93;3.63;;;28.80;54.70;;;;;;4386935;28;656662;-68
2023/09/07 13:07:26;;;;;;;7.25;3.30;;;29.00;54.60;;;;;;4403189;28;657388;-70
2023/09/07 13:10:13;;;;;;;8.07;3.15;;;29.00;53.10;;;;;;4386413;28;656670;-69
2023/09/07 13:13:00;;;;;;;6.25;3.40;;;29.30;53.20;;;;;;4401828;28;658119;-68
2023/09/07 13:15:48;;;;;;;5.63;3.78;;;29.60;51.60;;;;;;4389283;28;656524;-68
2023/09/07 13:18:35;;;;;;;5.38;3.50;;;29.40;52.50;;;;;;4399532;28;658122;-68
2023/09/07 13:21:22;;;;;;;5.13;3.78;;;29.30;52.40;;;;;;4405963;28;657038;-68
2023/09/07 13:24:11;;;;;;;6.07;3.65;;;29.30;53.30;;;;;;4405959;28;657707;-69
2023/09/07 13:26:58;;;;;;;5.65;3.83;;;29.40;52.80;;;;;;4397784;28;656743;-68
2023/09/07 13:29:45;;;;;;;9.48;3.72;;;29.50;51.60;;;;;;4405032;28;658762;-69
2023/09/07 13:32:33;;;;;;;4.78;3.10;;;28.90;53.70;;;;;;4385429;28;656793;-69
2023/09/07 13:35:20;;;;;;;5.28;3.53;;;29.20;52.20;;;;;;4408644;28;657202;-69
2023/09/07 13:38:07;;;;;;;8.75;3.88;;;29.20;51.00;;;;;;4393360;28;656793;-68
2023/09/07 13:40:56;;;;;;;6.15;3.70;;;29.40;51.50;;;;;;4400222;28;658369;-69
2023/09/07 13:43:43;;;;;;;5.05;3.50;;;29.30;50.90;;;;;;4390649;28;656420;-69
2023/09/07 13:46:30;;;;;;;7.20;3.63;;;29.30;50.30;;;;;;4402230;28;658034;-69
2023/09/07 13:49:18;;;;;;;8.57;3.97;;;29.30;50.00;;;;;;4385701;28;657091;-69
2023/09/07 13:52:05;;;;;;;10.40;4.07;;;29.10;52.00;;;;;;4410667;28;656685;-69
2023/09/07 13:54:53;;;;;;;4.63;3.90;;;28.90;51.40;;;;;;4389600;28;657834;-69
2023/09/07 13:57:41;;;;;;;8.85;3.83;;;28.90;52.00;;;;;;4408283;28;658236;-69
2023/09/07 14:00:28;;;;;;;6.38;3.80;;;29.10;51.30;;;;;;4395148;28;656784;-69
2023/09/07 14:03:16;;;;;;;4.93;3.67;;;29.20;51.80;;;;;;4411097;28;657993;-68
2023/09/07 14:06:03;;;;;;;6.45;3.63;;;29.00;52.30;;;;;;4393274;28;656631;-68
2023/09/07 14:08:51;;;;;;;4.55;3.63;;;29.10;51.90;;;;;;4412727;28;657191;-69
2023/09/07 14:11:38;;;;;;;7.50;3.70;;;29.20;51.10;;;;;;4383001;28;656542;-69
2023/09/07 14:14:26;;;;;;;10.65;4.22;;;29.20;50.70;;;;;;4416479;28;657052;-69